Time;durP1;ratioP1;P1;durP2;ratioP2;P2;SDS_P1;SDS_P2;PMS_P1;PMS_P2;Temp;Humidity;BMP_temperature;BMP_pressure;BME280_temperature;BME280_humidity;BME280_pressure;Samples;Min_cycle;Max_cycle;Signal;HPM_P1;HPM_P2
2021/09/22 00:00:12;;;;;;;22.15;11.77;;;;;;;7.20;95.97;96611.97;4988907;28;20101;-74
2021/09/22 00:02:58;;;;;;;22.00;12.38;;;;;;;7.08;97.25;96619.78;4980221;28;20055;-75
2021/09/22 00:05:23;;;;;;;23.17;12.13;;;;;;;7.12;97.04;96625.38;4978526;28;20042;-75
2021/09/22 00:07:49;;;;;;;20.77;11.35;;;;;;;7.19;96.87;96622.69;4981101;28;20504;-75
2021/09/22 00:10:18;;;;;;;22.83;12.05;;;;;;;7.17;97.13;96619.47;4988671;28;20508;-75
2021/09/22 00:12:44;;;;;;;22.10;11.48;;;;;;;7.07;97.55;96618.19;4984328;28;20043;-75
2021/09/22 00:15:12;;;;;;;20.75;11.77;;;;;;;7.04;97.64;96620.41;4988432;28;20492;-75
2021/09/22 00:17:38;;;;;;;22.60;12.00;;;;;;;7.06;97.34;96615.78;4985613;28;20048;-75
2021/09/22 00:20:04;;;;;;;22.65;11.68;;;;;;;7.14;97.34;96612.06;4988593;28;20042;-75
2021/09/22 00:22:29;;;;;;;23.33;11.38;;;;;;;7.27;96.89;96606.69;4985739;28;20047;-75
2021/09/22 00:24:55;;;;;;;22.85;11.85;;;;;;;7.33;96.06;96611.03;4981820;28;20043;-75
2021/09/22 00:27:20;;;;;;;21.48;11.05;;;;;;;7.28;96.32;96603.03;4996102;28;20057;-75
2021/09/22 00:29:46;;;;;;;27.10;11.73;;;;;;;7.17;97.37;96606.38;4988202;28;20047;-75
2021/09/22 00:32:12;;;;;;;21.27;11.52;;;;;;;7.11;97.60;96614.09;4993470;28;20490;-75
2021/09/22 00:34:37;;;;;;;20.80;10.88;;;;;;;7.14;97.48;96618.09;4987429;28;20050;-75
2021/09/22 00:37:06;;;;;;;20.75;11.13;;;;;;;7.16;97.71;96625.75;4970891;28;20043;-75
2021/09/22 00:39:34;;;;;;;20.08;10.88;;;;;;;7.11;98.22;96614.09;4987099;28;20033;-75
2021/09/22 00:42:04;;;;;;;21.20;11.13;;;;;;;7.23;97.64;96616.78;5001245;28;20042;-75
2021/09/22 00:44:30;;;;;;;24.08;10.95;;;;;;;7.29;97.36;96620.34;5001606;28;20049;-75
2021/09/22 00:46:56;;;;;;;23.13;11.38;;;;;;;7.39;97.79;96614.56;4992179;28;20070;-75
2021/09/22 00:49:21;;;;;;;23.08;11.32;;;;;;;7.43;96.94;96610.50;4990366;28;20044;-75
2021/09/22 00:51:47;;;;;;;25.15;11.52;;;;;;;7.42;96.94;96609.69;4990864;28;20042;-75
2021/09/22 00:54:13;;;;;;;21.55;11.35;;;;;;;7.27;97.49;96602.22;4985756;28;20068;-75
2021/09/22 00:56:39;;;;;;;23.23;10.95;;;;;;;7.25;97.80;96590.38;4993243;28;20465;-75
2021/09/22 00:59:05;;;;;;;18.92;10.27;;;;;;;7.20;98.46;96595.50;4983316;28;20039;-75
2021/09/22 01:01:32;;;;;;;28.52;11.43;;;;;;;7.11;98.35;96593.16;4991894;28;20038;-75
2021/09/22 01:04:00;;;;;;;21.50;11.15;;;;;;;7.20;98.82;96601.50;4977712;28;20121;-75
2021/09/22 01:06:26;;;;;;;21.85;10.98;;;;;;;7.20;98.44;96605.97;4981165;28;20093;-75
2021/09/22 01:08:52;;;;;;;19.95;10.30;;;;;;;7.31;98.34;96605.19;4980091;28;20046;-75
2021/09/22 01:11:19;;;;;;;25.30;11.70;;;;;;;7.30;97.99;96606.22;4991343;28;20052;-75
2021/09/22 01:13:46;;;;;;;18.88;10.75;;;;;;;7.41;98.15;96602.88;4990326;28;20038;-75
2021/09/22 01:16:12;;;;;;;21.35;11.27;;;;;;;7.60;97.39;96601.00;4991465;28;20137;-75
2021/09/22 01:18:37;;;;;;;22.08;11.43;;;;;;;7.46;97.99;96602.97;4991441;28;20496;-75
2021/09/22 01:21:03;;;;;;;23.80;11.52;;;;;;;7.44;98.64;96601.59;4989989;28;20073;-75
2021/09/22 01:23:29;;;;;;;25.15;11.15;;;;;;;7.48;98.30;96596.72;4988332;28;20413;-75
2021/09/22 01:25:56;;;;;;;22.23;10.65;;;;;;;7.45;98.21;96593.53;4983233;28;20096;-75
2021/09/22 01:28:24;;;;;;;23.23;10.45;;;;;;;7.60;97.44;96589.69;4991658;28;20051;-75
2021/09/22 01:30:51;;;;;;;21.25;11.10;;;;;;;7.50;98.00;96578.97;4988575;28;20042;-75
2021/09/22 01:33:18;;;;;;;20.38;10.77;;;;;;;7.43;98.61;96590.34;4984093;28;20113;-75
2021/09/22 01:35:45;;;;;;;19.80;10.48;;;;;;;7.44;98.20;96591.94;4990192;28;20242;-75
2021/09/22 01:38:14;;;;;;;21.55;10.55;;;;;;;7.45;98.13;96593.53;4976164;28;20043;-75
2021/09/22 01:40:40;;;;;;;19.40;10.93;;;;;;;7.42;98.54;96593.97;4979939;28;20053;-75
2021/09/22 01:43:06;;;;;;;19.40;10.95;;;;;;;7.65;97.66;96583.81;4991656;28;20055;-76
2021/09/22 01:45:33;;;;;;;17.35;9.90;;;;;;;7.75;97.47;96581.44;4981084;28;20035;-75
2021/09/22 01:47:59;;;;;;;21.27;11.43;;;;;;;7.69;97.35;96564.78;4988945;28;20046;-74
2021/09/22 01:50:25;;;;;;;18.60;10.48;;;;;;;7.70;96.91;96563.78;4985018;28;20057;-75
2021/09/22 01:52:52;;;;;;;22.17;10.48;;;;;;;7.58;98.51;96563.72;4977548;28;20038;-75
2021/09/22 01:55:22;;;;;;;20.00;11.30;;;;;;;7.56;98.33;96578.09;4993793;28;20049;-75
2021/09/22 01:57:49;;;;;;;24.50;11.43;;;;;;;7.55;98.18;96576.47;4981093;28;20055;-75
2021/09/22 02:00:15;;;;;;;20.60;10.73;;;;;;;7.67;98.07;96569.47;4974888;28;20067;-75
2021/09/22 02:02:41;;;;;;;21.33;11.45;;;;;;;7.60;97.72;96568.75;4990646;28;20042;-75
2021/09/22 02:05:07;;;;;;;21.20;11.00;;;;;;;7.52;98.34;96576.94;4993030;28;20046;-75
2021/09/22 02:07:33;;;;;;;22.00;10.70;;;;;;;7.53;97.76;96578.50;4978413;28;20047;-75
2021/09/22 02:09:59;;;;;;;22.85;11.40;;;;;;;7.50;97.93;96578.97;4972236;28;20049;-75
2021/09/22 02:12:26;;;;;;;16.83;9.88;;;;;;;7.50;97.97;96589.44;4989084;28;20053;-75
2021/09/22 02:14:52;;;;;;;20.15;10.45;;;;;;;7.37;97.95;96596.47;4976755;28;20046;-75
2021/09/22 02:17:18;;;;;;;19.00;10.88;;;;;;;7.32;98.36;96593.72;4991788;28;20749;-75
2021/09/22 02:19:43;;;;;;;20.17;11.05;;;;;;;7.25;98.55;96593.78;4981291;28;20050;-75
2021/09/22 02:22:09;;;;;;;19.80;10.30;;;;;;;7.26;98.29;96591.97;4984174;28;20057;-75
2021/09/22 02:24:37;;;;;;;21.70;11.07;;;;;;;7.31;98.36;96589.47;4991922;28;20058;-76
2021/09/22 02:27:03;;;;;;;19.48;10.85;;;;;;;7.25;98.25;96593.78;4985321;28;20039;-75
2021/09/22 02:29:29;;;;;;;20.77;11.00;;;;;;;7.27;97.54;96590.97;4971311;28;20053;-75
2021/09/22 02:31:55;;;;;;;19.38;10.43;;;;;;;7.21;97.75;96597.06;4981998;28;20756;-75
2021/09/22 02:34:20;;;;;;;19.10;10.60;;;;;;;7.13;97.62;96600.00;5004756;28;20518;-75
2021/09/22 02:36:46;;;;;;;21.42;10.45;;;;;;;7.06;97.53;96595.63;4991057;28;20638;-75
2021/09/22 02:39:11;;;;;;;17.98;10.38;;;;;;;7.23;97.62;96592.44;5001015;28;20042;-75
2021/09/22 02:41:37;;;;;;;19.95;10.60;;;;;;;7.22;97.37;96591.59;4974999;28;20050;-75
2021/09/22 02:44:03;;;;;;;19.48;10.20;;;;;;;7.22;97.33;96591.59;4990942;28;20042;-75
2021/09/22 02:46:29;;;;;;;17.85;10.07;;;;;;;7.10;97.23;96591.56;4989107;28;20084;-75
2021/09/22 02:48:55;;;;;;;19.85;10.00;;;;;;;7.00;98.03;96587.88;5008878;28;20042;-75
2021/09/22 02:51:21;;;;;;;21.00;9.90;;;;;;;6.87;97.81;96596.69;5002710;28;20043;-75
2021/09/22 02:53:46;;;;;;;24.33;11.20;;;;;;;6.84;98.46;96603.16;4978460;28;20043;-75
2021/09/22 02:56:12;;;;;;;21.27;10.77;;;;;;;6.76;98.51;96606.81;4975085;28;20118;-75
2021/09/22 02:58:37;;;;;;;20.35;10.55;;;;;;;6.67;98.04;96608.16;4989389;28;20050;-75
2021/09/22 03:01:03;;;;;;;20.17;10.88;;;;;;;6.67;98.76;96608.16;4986169;28;20038;-75
2021/09/22 03:03:30;;;;;;;18.42;10.90;;;;;;;6.59;97.89;96608.41;4982230;28;20852;-75
2021/09/22 03:05:57;;;;;;;21.83;11.30;;;;;;;6.49;98.80;96611.53;4987725;28;20093;-75
2021/09/22 03:08:22;;;;;;;20.45;10.82;;;;;;;6.51;98.26;96603.50;5003087;28;20413;-75
2021/09/22 03:10:48;;;;;;;18.95;10.48;;;;;;;6.49;98.06;96602.91;5007615;28;20053;-75
2021/09/22 03:13:13;;;;;;;25.08;11.55;;;;;;;6.55;98.01;96604.63;4999095;28;20053;-75
2021/09/22 03:15:39;;;;;;;20.88;11.02;;;;;;;6.38;99.04;96615.66;4987164;28;20050;-75
2021/09/22 03:18:04;;;;;;;25.00;11.07;;;;;;;6.27;99.09;96602.50;4989537;28;20043;-75
2021/09/22 03:20:30;;;;;;;22.45;11.20;;;;;;;6.35;98.56;96605.63;5002533;28;20049;-75
2021/09/22 03:22:55;;;;;;;22.30;10.90;;;;;;;6.37;99.05;96613.28;4996731;28;20043;-75
2021/09/22 03:25:21;;;;;;;22.65;10.52;;;;;;;6.27;98.90;96613.75;4987524;28;20097;-75
2021/09/22 03:27:47;;;;;;;20.75;10.73;;;;;;;6.25;98.14;96618.41;4993450;28;20042;-75
2021/09/22 03:30:12;;;;;;;19.90;10.90;;;;;;;6.10;98.75;96613.47;5008862;28;20038;-75
2021/09/22 03:32:39;;;;;;;18.90;10.65;;;;;;;6.19;99.07;96616.63;4982080;28;20090;-75
2021/09/22 03:35:05;;;;;;;19.55;10.32;;;;;;;6.17;98.69;96618.66;4979933;28;20047;-75
2021/09/22 03:37:31;;;;;;;17.52;9.55;;;;;;;6.27;98.07;96618.97;4981931;28;20492;-75
2021/09/22 03:39:57;;;;;;;18.20;10.10;;;;;;;6.24;98.51;96624.63;5008819;28;20069;-75
2021/09/22 03:42:22;;;;;;;18.60;10.05;;;;;;;6.12;98.64;96621.09;5006715;28;20132;-75
2021/09/22 03:44:48;;;;;;;20.65;10.32;;;;;;;6.16;98.76;96622.28;4993943;28;20113;-75
2021/09/22 03:47:14;;;;;;;22.58;11.43;;;;;;;6.09;98.67;96629.38;4988491;28;20096;-76
2021/09/22 03:49:39;;;;;;;22.95;10.60;;;;;;;6.32;97.63;96621.75;4995995;28;20043;-75
2021/09/22 03:52:05;;;;;;;20.77;10.73;;;;;;;6.27;98.19;96612.97;4987810;28;20576;-75
2021/09/22 03:54:30;;;;;;;22.48;10.88;;;;;;;6.07;98.55;96621.75;4984412;28;20093;-75
2021/09/22 03:56:56;;;;;;;21.67;10.82;;;;;;;5.98;98.87;96621.22;4987698;28;20054;-75
2021/09/22 03:59:21;;;;;;;21.08;10.60;;;;;;;6.13;98.66;96627.94;4981024;28;20035;-76
2021/09/22 04:01:47;;;;;;;23.73;11.07;;;;;;;6.12;98.79;96628.94;4983733;28;20053;-75
2021/09/22 04:04:13;;;;;;;24.60;11.32;;;;;;;6.09;98.54;96632.00;4984564;28;20050;-75
2021/09/22 04:06:38;;;;;;;24.00;9.80;;;;;;;6.12;97.52;96623.72;4979616;28;20150;-75
2021/09/22 04:09:04;;;;;;;21.15;11.02;;;;;;;6.04;97.27;96617.75;4975550;28;20652;-75
2021/09/22 04:11:30;;;;;;;22.85;11.75;;;;;;;5.90;97.92;96605.75;4986393;28;20057;-75
2021/09/22 04:13:55;;;;;;;23.77;12.23;;;;;;;5.70;99.20;96611.94;4987540;28;20045;-75
2021/09/22 04:16:21;;;;;;;21.60;10.75;;;;;;;5.61;99.97;96605.34;4972880;28;20051;-75
2021/09/22 04:18:47;;;;;;;35.22;12.05;;;;;;;5.69;99.36;96607.72;4976771;28;20042;-75
2021/09/22 04:21:12;;;;;;;29.35;11.75;;;;;;;5.63;99.57;96613.78;4989831;28;20034;-75
2021/09/22 04:23:38;;;;;;;22.20;11.27;;;;;;;5.65;99.50;96616.97;4996215;28;20047;-74
2021/09/22 04:26:04;;;;;;;27.50;10.82;;;;;;;5.63;98.64;96611.19;4974183;28;20496;-74
2021/09/22 04:28:29;;;;;;;25.73;11.52;;;;;;;5.56;98.57;96613.03;4989264;28;20520;-74
2021/09/22 04:30:55;;;;;;;24.75;11.32;;;;;;;5.44;97.86;96614.69;4988283;28;20073;-74
2021/09/22 04:33:20;;;;;;;21.98;11.05;;;;;;;5.55;97.94;96606.19;4984106;28;20472;-74
2021/09/22 04:35:46;;;;;;;20.48;10.70;;;;;;;5.62;97.66;96606.97;4986763;28;20459;-75
2021/09/22 04:38:12;;;;;;;22.40;10.90;;;;;;;5.61;98.59;96610.56;4989046;28;20092;-75
2021/09/22 04:40:37;;;;;;;24.42;11.15;;;;;;;5.50;98.53;96608.63;4991351;28;20157;-75
2021/09/22 04:43:03;;;;;;;22.48;11.20;;;;;;;5.43;99.65;96613.09;4979030;28;20039;-74
2021/09/22 04:45:29;;;;;;;22.95;11.65;;;;;;;5.49;99.12;96601.81;4977557;28;20042;-75
2021/09/22 04:47:56;;;;;;;21.77;11.07;;;;;;;5.53;98.24;96608.19;4994414;28;20104;-74
2021/09/22 04:50:22;;;;;;;24.13;11.15;;;;;;;5.47;98.16;96609.06;4981103;28;20521;-75
2021/09/22 04:52:49;;;;;;;18.67;10.32;;;;;;;5.37;98.54;96610.31;5000120;28;20062;-74
2021/09/22 04:55:15;;;;;;;20.88;10.20;;;;;;;5.36;98.51;96608.72;4977153;28;20045;-74
2021/09/22 04:57:41;;;;;;;23.73;11.48;;;;;;;5.28;99.12;96616.78;4988556;28;20046;-74
2021/09/22 05:00:08;;;;;;;23.17;11.00;;;;;;;5.36;98.17;96624.38;4987966;28;20700;-74
2021/09/22 05:02:33;;;;;;;21.33;11.43;;;;;;;5.27;98.27;96625.63;4980996;28;20043;-74
2021/09/22 05:04:59;;;;;;;25.05;11.80;;;;;;;5.27;98.42;96619.59;4979810;28;20042;-75
2021/09/22 05:07:25;;;;;;;22.58;10.88;;;;;;;5.31;98.77;96626.78;4982375;28;20074;-75
2021/09/22 05:09:50;;;;;;;22.77;11.43;;;;;;;5.33;97.65;96614.34;4984099;28;20043;-75
2021/09/22 05:12:16;;;;;;;23.13;10.57;;;;;;;5.45;97.86;96630.16;4984900;28;20488;-75
2021/09/22 05:14:41;;;;;;;22.48;10.95;;;;;;;5.47;97.77;96629.94;4996784;28;20072;-75
2021/09/22 05:17:07;;;;;;;21.10;11.20;;;;;;;5.41;97.75;96636.78;4989425;28;20497;-75
2021/09/22 05:19:33;;;;;;;25.17;11.70;;;;;;;5.32;98.44;96638.84;4996593;28;20046;-75
2021/09/22 05:21:58;;;;;;;28.27;11.77;;;;;;;5.12;98.83;96648.56;5007973;28;20046;-75
2021/09/22 05:24:24;;;;;;;22.45;11.43;;;;;;;5.18;98.87;96637.28;4988084;28;20046;-75
2021/09/22 05:26:50;;;;;;;26.90;11.82;;;;;;;5.23;99.18;96636.66;4988807;28;20659;-74
2021/09/22 05:29:16;;;;;;;23.00;11.27;;;;;;;5.20;98.84;96640.47;4983123;28;20050;-75
2021/09/22 05:31:42;;;;;;;23.17;11.15;;;;;;;5.32;98.92;96638.84;4985811;28;20057;-75
2021/09/22 05:34:07;;;;;;;28.88;12.20;;;;;;;5.33;98.19;96635.22;5011348;28;20049;-75
2021/09/22 05:36:33;;;;;;;25.30;12.70;;;;;;;5.42;98.80;96642.84;4999216;28;20642;-75
2021/09/22 05:38:58;;;;;;;27.60;12.20;;;;;;;5.58;98.25;96642.34;5009556;28;20038;-75
2021/09/22 05:41:24;;;;;;;24.52;11.88;;;;;;;5.56;98.23;96644.38;5000324;28;20121;-76
2021/09/22 05:43:50;;;;;;;27.65;12.52;;;;;;;5.55;98.08;96632.31;4991761;28;20097;-75
2021/09/22 05:46:15;;;;;;;28.05;12.50;;;;;;;5.63;98.99;96634.69;4984914;28;20410;-75
2021/09/22 05:48:41;;;;;;;27.95;12.38;;;;;;;5.76;98.61;96636.41;4990916;28;20041;-75
2021/09/22 05:51:06;;;;;;;26.95;12.57;;;;;;;5.84;98.76;96645.81;4984305;28;20121;-75
2021/09/22 05:53:32;;;;;;;29.02;12.68;;;;;;;5.91;98.84;96649.16;4984177;28;20046;-75
2021/09/22 05:55:57;;;;;;;26.33;12.57;;;;;;;5.95;98.64;96647.75;4972190;28;20173;-75
2021/09/22 05:58:24;;;;;;;33.22;14.20;;;;;;;6.03;99.12;96650.13;4989767;28;20053;-75
2021/09/22 06:00:51;;;;;;;29.33;13.88;;;;;;;6.14;99.26;96650.47;4989807;28;20166;-75
2021/09/22 06:03:18;;;;;;;27.23;13.13;;;;;;;6.21;98.83;96640.75;4981736;28;20066;-75
2021/09/22 06:05:44;;;;;;;33.03;14.68;;;;;;;6.29;99.14;96648.31;4978243;28;20887;-75
2021/09/22 06:08:09;;;;;;;30.98;14.73;;;;;;;6.34;99.47;96645.06;4983859;28;20086;-75
2021/09/22 06:10:37;;;;;;;39.22;15.43;;;;;;;6.44;99.67;96644.56;4992647;28;20073;-75
2021/09/22 06:13:04;;;;;;;32.63;15.35;;;;;;;6.58;99.62;96648.69;4991596;28;20045;-76
2021/09/22 06:15:30;;;;;;;36.45;16.42;;;;;;;6.71;98.99;96645.94;5005508;28;20037;-75
2021/09/22 06:17:56;;;;;;;32.10;14.77;;;;;;;6.82;98.62;96641.78;5002411;28;20050;-75
2021/09/22 06:20:22;;;;;;;41.55;16.15;;;;;;;6.89;98.63;96641.72;4997035;28;20041;-75
2021/09/22 06:22:47;;;;;;;36.55;16.00;;;;;;;7.05;97.83;96640.34;4989211;28;20058;-75
2021/09/22 06:25:14;;;;;;;37.20;16.85;;;;;;;7.14;97.81;96643.47;4996018;28;20053;-75
2021/09/22 06:27:40;;;;;;;38.60;16.95;;;;;;;7.22;97.66;96643.19;4971875;28;20050;-75
2021/09/22 06:30:07;;;;;;;37.35;16.70;;;;;;;7.35;97.80;96639.59;4998258;28;20041;-74
2021/09/22 06:32:32;;;;;;;36.45;16.90;;;;;;;7.50;97.21;96641.81;4984216;28;20098;-75
2021/09/22 06:34:58;;;;;;;40.85;18.52;;;;;;;7.65;97.27;96639.63;4999335;28;20050;-75
2021/09/22 06:37:24;;;;;;;38.10;16.85;;;;;;;7.78;96.09;96642.03;5001518;28;20041;-75
2021/09/22 06:39:49;;;;;;;36.03;17.25;;;;;;;7.83;95.21;96640.56;4983366;28;20045;-74
2021/09/22 06:42:15;;;;;;;36.53;17.10;;;;;;;7.82;96.07;96644.25;4989148;28;20038;-75
2021/09/22 06:44:40;;;;;;;35.10;16.83;;;;;;;7.83;95.95;96651.06;4999708;28;20527;-74
2021/09/22 06:47:06;;;;;;;32.97;15.93;;;;;;;8.12;93.37;96650.22;4999222;28;20096;-74
2021/09/22 06:49:32;;;;;;;34.92;16.25;;;;;;;8.31;92.57;96650.16;4996936;28;20040;-74
2021/09/22 06:51:58;;;;;;;35.72;16.27;;;;;;;8.35;93.21;96651.28;4996727;28;20054;-73
2021/09/22 06:54:23;;;;;;;32.38;15.95;;;;;;;8.30;93.63;96643.28;4987460;28;20045;-73
2021/09/22 06:56:49;;;;;;;32.25;15.90;;;;;;;8.41;93.63;96647.75;4993011;28;20134;-73
2021/09/22 06:59:15;;;;;;;32.50;16.15;;;;;;;8.46;93.47;96655.78;4992914;28;20034;-73
2021/09/22 07:01:41;;;;;;;31.58;15.68;;;;;;;8.45;95.26;96648.94;4986586;28;20128;-73
2021/09/22 07:04:07;;;;;;;35.08;17.48;;;;;;;8.51;93.09;96656.94;4988030;28;20412;-73
2021/09/22 07:06:33;;;;;;;34.15;17.17;;;;;;;8.60;89.86;96655.56;4993295;28;20038;-73
2021/09/22 07:08:58;;;;;;;36.58;18.95;;;;;;;8.69;90.73;96659.41;4990133;28;20532;-73
2021/09/22 07:11:24;;;;;;;32.45;17.10;;;;;;;8.79;90.65;96664.91;4982966;28;20141;-73
2021/09/22 07:13:50;;;;;;;31.40;16.73;;;;;;;8.79;92.55;96659.66;4993304;28;20512;-73
2021/09/22 07:16:16;;;;;;;33.72;16.88;;;;;;;8.79;90.90;96654.41;4986844;28;20034;-73
2021/09/22 07:18:45;;;;;;;34.17;16.27;;;;;;;8.90;90.41;96670.38;4991758;28;20038;-73
2021/09/22 07:21:14;;;;;;;33.08;17.55;;;;;;;8.96;87.44;96669.47;5004671;28;20521;-73
2021/09/22 07:23:41;;;;;;;32.80;17.25;;;;;;;9.05;87.35;96662.84;4993244;28;20481;-73
2021/09/22 07:26:07;;;;;;;35.05;18.20;;;;;;;9.14;88.85;96671.94;4992590;28;20042;-73
2021/09/22 07:28:34;;;;;;;32.13;15.63;;;;;;;9.32;85.32;96667.56;5002536;28;20411;-73
2021/09/22 07:31:00;;;;;;;34.33;15.95;;;;;;;9.35;85.25;96661.84;4975045;28;20045;-73
2021/09/22 07:33:26;;;;;;;32.92;16.52;;;;;;;9.42;85.97;96657.25;4970097;28;20043;-73
2021/09/22 07:35:52;;;;;;;31.10;15.82;;;;;;;9.45;85.47;96659.44;4975858;28;20483;-73
2021/09/22 07:38:17;;;;;;;32.28;16.30;;;;;;;9.51;85.52;96661.13;4987486;28;20113;-73
2021/09/22 07:40:44;;;;;;;31.88;16.33;;;;;;;9.65;85.92;96663.47;4996146;28;20122;-73
2021/09/22 07:43:10;;;;;;;40.88;16.30;;;;;;;9.69;84.48;96664.59;4997688;28;20048;-73
2021/09/22 07:45:36;;;;;;;29.17;15.60;;;;;;;9.69;80.09;96665.38;4995809;28;20038;-73
2021/09/22 07:48:02;;;;;;;30.88;15.15;;;;;;;9.76;78.96;96667.09;4994508;28;20054;-73
2021/09/22 07:50:27;;;;;;;29.48;14.88;;;;;;;9.81;79.07;96673.25;4989667;28;20042;-73
2021/09/22 07:52:53;;;;;;;29.50;15.20;;;;;;;9.88;78.90;96665.19;4988713;28;20583;-73
2021/09/22 07:55:19;;;;;;;31.73;15.60;;;;;;;9.98;79.16;96669.84;4984753;28;20508;-73
2021/09/22 07:57:45;;;;;;;28.85;15.07;;;;;;;10.04;79.52;96674.13;4988484;28;20057;-74
2021/09/22 08:00:11;;;;;;;27.73;15.18;;;;;;;10.04;79.35;96663.63;4988913;28;20057;-73
2021/09/22 08:02:38;;;;;;;26.25;15.13;;;;;;;10.15;78.90;96660.13;4987619;28;20047;-73
2021/09/22 08:05:05;;;;;;;29.92;14.93;;;;;;;10.08;76.11;96675.28;4984947;28;20455;-73
2021/09/22 08:07:30;;;;;;;29.20;15.55;;;;;;;10.15;77.45;96665.41;4981062;28;20041;-73
2021/09/22 08:09:56;;;;;;;29.90;14.95;;;;;;;10.62;75.35;96679.34;4988878;28;20500;-73
2021/09/22 08:12:22;;;;;;;26.77;15.68;;;;;;;10.49;76.39;96678.59;4994323;28;20593;-73
2021/09/22 08:14:47;;;;;;;30.00;15.68;;;;;;;10.62;77.42;96679.34;4988878;28;20058;-73
2021/09/22 08:17:14;;;;;;;29.05;15.32;;;;;;;10.55;75.86;96675.00;4986902;28;20122;-73
2021/09/22 08:19:41;;;;;;;28.70;14.30;;;;;;;10.35;71.18;96679.97;4988793;28;20050;-73
2021/09/22 08:22:07;;;;;;;25.17;13.07;;;;;;;10.49;72.33;96675.97;4988283;28;20043;-73
2021/09/22 08:24:33;;;;;;;25.00;13.82;;;;;;;10.47;71.24;96675.41;4984961;28;20047;-73
2021/09/22 08:27:00;;;;;;;23.90;12.85;;;;;;;10.54;71.89;96673.44;4985306;28;20050;-73
2021/09/22 08:29:26;;;;;;;23.02;12.88;;;;;;;10.72;69.54;96674.22;4989112;28;20045;-73
2021/09/22 08:31:52;;;;;;;26.42;12.88;;;;;;;10.80;69.58;96676.41;5002255;28;20499;-73
2021/09/22 08:34:20;;;;;;;23.70;12.05;;;;;;;11.02;69.03;96679.09;4989611;28;20101;-74
2021/09/22 08:36:45;;;;;;;24.27;13.15;;;;;;;11.06;68.88;96679.41;4979839;28;20046;-74
2021/09/22 08:39:12;;;;;;;24.45;13.05;;;;;;;10.91;69.19;96675.53;4988751;28;20046;-74
2021/09/22 08:41:38;;;;;;;24.25;13.05;;;;;;;11.02;68.30;96673.03;4989208;28;20042;-74
2021/09/22 08:44:04;;;;;;;25.05;12.68;;;;;;;11.15;69.90;96672.69;4984326;28;20124;-74
2021/09/22 08:46:32;;;;;;;22.42;12.32;;;;;;;11.23;68.38;96674.91;4966684;28;20058;-74
2021/09/22 08:49:03;;;;;;;24.13;12.45;;;;;;;11.33;67.73;96670.78;4972410;28;20109;-74
2021/09/22 08:51:29;;;;;;;21.13;12.02;;;;;;;11.44;66.74;96665.38;4985920;28;20523;-74
2021/09/22 08:53:55;;;;;;;22.92;12.60;;;;;;;11.65;66.86;96667.44;4983921;28;20121;-74
2021/09/22 08:56:21;;;;;;;21.58;11.95;;;;;;;11.51;66.39;96664.41;4986373;28;20112;-74
2021/09/22 08:58:46;;;;;;;22.02;12.38;;;;;;;11.53;66.53;96652.56;4985852;28;20050;-74
2021/09/22 09:01:15;;;;;;;22.77;12.43;;;;;;;11.52;66.48;96661.53;4976766;28;20073;-73
2021/09/22 09:03:42;;;;;;;23.15;12.80;;;;;;;11.81;65.86;96658.69;4984416;28;20137;-74
2021/09/22 09:06:34;;;;;;;19.38;11.63;;;;;;;11.93;66.20;96667.25;4983739;28;20126;-74
2021/09/22 09:09:02;;;;;;;22.27;11.48;;;;;;;12.00;65.03;96661.00;4987817;28;20062;-73
2021/09/22 09:11:30;;;;;;;19.15;11.13;;;;;;;11.85;63.68;96665.06;4977933;28;20073;-74
2021/09/22 09:13:57;;;;;;;24.25;10.70;;;;;;;12.00;65.20;96651.22;4984099;28;20054;-74
2021/09/22 09:16:29;;;;;;;24.48;12.00;;;;;;;12.13;64.34;96660.56;4988038;28;20050;-74
2021/09/22 09:18:55;;;;;;;16.40;9.98;;;;;;;12.47;62.49;96660.34;4988950;28;20065;-73
2021/09/22 09:21:24;;;;;;;20.80;10.90;;;;;;;12.18;61.87;96663.25;4988943;28;20038;-73
2021/09/22 09:23:54;;;;;;;18.48;9.70;;;;;;;12.14;60.78;96656.91;4974201;28;20066;-74
2021/09/22 09:26:23;;;;;;;17.15;9.75;;;;;;;12.35;60.90;96660.50;4978854;28;20046;-74
2021/09/22 09:28:52;;;;;;;19.40;10.13;;;;;;;12.42;60.65;96657.66;4989010;28;20089;-74
2021/09/22 09:31:19;;;;;;;19.70;9.60;;;;;;;12.45;62.30;96657.13;4981991;28;20034;-74
2021/09/22 09:33:52;;;;;;;17.33;8.68;;;;;;;12.64;60.38;96660.97;4988994;28;20610;-74
2021/09/22 09:36:37;;;;;;;17.60;7.90;;;;;;;12.68;60.25;96649.91;4984811;28;20035;-74
2021/09/22 09:39:11;;;;;;;12.98;7.55;;;;;;;13.06;58.81;96650.63;4981559;28;20582;-74
2021/09/22 09:41:45;;;;;;;20.25;7.70;;;;;;;13.38;57.02;96652.41;4988871;28;20073;-73
2021/09/22 09:44:13;;;;;;;17.33;8.60;;;;;;;13.32;59.68;96660.28;4988341;28;20059;-74
2021/09/22 09:46:40;;;;;;;13.85;8.32;;;;;;;13.25;58.89;96653.66;4985822;28;20121;-74
2021/09/22 09:49:24;;;;;;;14.65;7.60;;;;;;;13.66;59.88;96649.31;4969921;28;20130;-74
2021/09/22 09:51:57;;;;;;;13.97;8.13;;;;;;;13.53;58.84;96655.09;4979187;28;20393;-74
2021/09/22 09:54:28;;;;;;;14.73;7.88;;;;;;;13.78;58.25;96646.44;4987956;28;20299;-74
2021/09/22 09:56:56;;;;;;;15.23;8.15;;;;;;;14.10;58.93;96642.78;4988387;28;20057;-73
2021/09/22 09:59:24;;;;;;;12.57;7.40;;;;;;;14.33;55.82;96645.97;4987155;28;20081;-73
2021/09/22 10:01:54;;;;;;;15.98;7.78;;;;;;;14.44;55.52;96642.25;4980587;28;20046;-73
2021/09/22 10:04:24;;;;;;;13.15;7.60;;;;;;;14.62;58.04;96643.56;4985023;28;20519;-75
2021/09/22 10:06:52;;;;;;;13.48;6.95;;;;;;;15.04;54.55;96634.50;4974242;28;20508;-75
2021/09/22 10:09:18;;;;;;;9.65;6.43;;;;;;;14.73;54.46;96634.56;4988733;28;20093;-74
2021/09/22 10:11:45;;;;;;;11.93;6.07;;;;;;;15.32;54.61;96640.22;4991956;28;20043;-73
2021/09/22 10:14:14;;;;;;;12.55;6.00;;;;;;;15.92;53.50;96637.53;4986736;28;20528;-74
2021/09/22 10:16:40;;;;;;;12.48;6.32;;;;;;;15.67;53.42;96643.75;4984862;28;20046;-73
2021/09/22 10:19:07;;;;;;;14.75;7.93;;;;;;;15.66;52.09;96639.53;4974698;28;20038;-74
2021/09/22 10:21:34;;;;;;;15.57;7.45;;;;;;;14.79;54.75;96632.69;4987141;28;20523;-73
2021/09/22 10:24:08;;;;;;;13.38;7.03;;;;;;;15.19;55.00;96640.81;4983660;28;20042;-74
2021/09/22 10:26:34;;;;;;;7.43;4.00;;;;;;;15.58;55.71;96638.22;4973610;28;20047;-74
2021/09/22 10:29:17;;;;;;;8.73;4.85;;;;;;;16.53;52.50;96645.31;4987092;28;20555;-73
2021/09/22 10:31:43;;;;;;;8.95;4.70;;;;;;;16.53;50.20;96632.03;4985981;28;20047;-74
2021/09/22 10:34:24;;;;;;;11.80;4.90;;;;;;;16.62;51.18;96627.66;4979611;28;20974;-73
2021/09/22 10:36:50;;;;;;;8.27;4.75;;;;;;;16.92;51.42;96625.81;4977791;28;20054;-73
2021/09/22 10:39:38;;;;;;;9.10;4.45;;;;;;;16.80;51.95;96629.63;4980532;28;20039;-73
2021/09/22 10:42:23;;;;;;;11.02;5.22;;;;;;;16.07;53.31;96627.88;4985120;28;20038;-73
2021/09/22 10:44:48;;;;;;;;;;;;;;;16.62;53.01;96625.00;4985245;28;20054;-73
2021/09/22 10:47:28;;;;;;;13.68;7.30;;;;;;;15.62;53.44;96627.88;4986179;28;20288;-75
2021/09/22 10:49:54;;;;;;;12.18;6.95;;;;;;;15.35;55.72;96621.09;4973874;28;20096;-74
2021/09/22 10:52:37;;;;;;;12.65;7.10;;;;;;;16.21;55.42;96617.44;4987933;28;20046;-74
2021/09/22 10:55:13;;;;;;;14.50;7.88;;;;;;;16.17;54.07;96616.38;4982678;28;20066;-73
2021/09/22 10:57:40;;;;;;;11.60;7.18;;;;;;;16.23;54.40;96615.28;4988021;28;20046;-73
2021/09/22 11:00:16;;;;;;;12.13;7.55;;;;;;;15.94;54.31;96608.06;4985369;28;20363;-73
2021/09/22 11:02:54;;;;;;;15.55;6.28;;;;;;;15.61;56.87;96615.66;4983003;28;20504;-72
2021/09/22 11:05:28;;;;;;;18.10;6.13;;;;;;;15.59;58.88;96620.47;4980055;28;20065;-75
2021/09/22 11:08:08;;;;;;;11.65;6.68;;;;;;;15.27;58.69;96611.06;4993503;28;20049;-76
2021/09/22 11:10:42;;;;;;;19.80;7.65;;;;;;;14.94;59.89;96623.91;4984040;28;20053;-76
2021/09/22 11:13:21;;;;;;;12.40;6.30;;;;;;;15.36;58.75;96620.03;4980700;28;20112;-76
2021/09/22 11:15:51;;;;;;;16.38;7.03;;;;;;;14.94;59.87;96608.03;4977582;28;20043;-76
2021/09/22 11:18:18;;;;;;;14.52;7.18;;;;;;;15.02;60.42;96618.03;4990119;28;20045;-75
2021/09/22 11:20:58;;;;;;;17.38;7.30;;;;;;;15.10;60.41;96615.91;4987184;28;20043;-76
2021/09/22 11:23:25;;;;;;;12.48;7.10;;;;;;;16.00;57.91;96601.63;4999452;28;20072;-76